Flight Track Log - Related Links

Times and Time Zones

All times are in EDT time to prevent confusion due to time zone crossing. See the N75AW flight status page for this flight to view local times or setup timezone preferences in your user account.

Time Position Orientation Groundspeed Altitude Reporting Facility
EDT Latitude Longitude Course Direction KTS MPH feet Rate Location/Type
Thu 12:53:22 PM 26.4106 -81.7319 324° Northwest 215 247 11,200  Level Miami Center
Thu 12:54:22 PM 26.4575 -81.7664 327° Northwest 205 236 12,600 1,600 Climbing Miami Center
Thu 12:55:22 PM 26.5083 -81.8033 327° Northwest 199 229 14,400 1,650 Climbing Miami Center
Thu 12:56:22 PM 26.5531 -81.8378 325° Northwest 205 236 15,900 1,650 Climbing Miami Center
Thu 12:57:22 PM 26.5997 -81.8744 325° Northwest 205 236 17,700 1,600 Climbing Miami Center
Thu 12:58:00 PM 26.8003 -82.3122 324° Northwest  Level Estimated
Thu 12:58:22 PM 26.6531 -81.9069 331° Northwest 205 236 19,100  Level Miami Center
Thu 12:59:22 PM 26.7019 -81.9369 331° Northwest 205 236 20,300 1,200 Climbing Miami Center
Thu 01:00:22 PM 26.7511 -81.9694 329° Northwest 200 230 21,500 900 Climbing Miami Center
Thu 01:01:22 PM 26.8000 -81.9969 333° Northwest 200 230 22,100 300 Climbing Miami Center
Thu 01:02:22 PM 26.8614 -82.0369 330° Northwest 224 258 22,100  Level Miami Center
Thu 01:03:22 PM 26.9289 -82.0750 333° Northwest 251 289 22,100  Level Miami Center
Thu 01:04:22 PM 27.0003 -82.1178 332° Northwest 273 314 22,100  Level Miami Center
Thu 01:05:22 PM 27.0761 -82.1608 333° Northwest 289 333 22,100  Level Miami Center
Thu 01:06:22 PM 27.1350 -82.1986 330° Northwest 284 327 22,100  Level Miami Center
Thu 01:07:22 PM 27.2022 -82.2436 329° Northwest 284 327 22,100  Level Miami Center
Thu 01:08:22 PM 27.2778 -82.2914 331° Northwest 277 319 22,100  Level Miami Center
Thu 01:09:22 PM 27.3469 -82.3344 331° Northwest 277 319 22,100  Level Miami Center
Thu 01:10:22 PM 27.4122 -82.3750 331° Northwest 270 311 22,100 -50 Level Miami Center
Thu 01:11:22 PM 27.4714 -82.4153 329° Northwest 270 311 22,000 -50 Descending Miami Center
Thu 01:12:22 PM 27.5383 -82.4583 330° Northwest 265 305 22,000 50 Level Miami Center
Thu 01:13:22 PM 27.6097 -82.5017 332° Northwest 265 305 22,100 30 Climbing Miami Center
Thu 01:15:45 PM 27.7656 -82.5972 332° Northwest 272 313 22,100  Level Jacksonville Center
Thu 01:16:45 PM 27.8325 -82.6414 330° Northwest 272 313 22,100  Level Jacksonville Center
Thu 01:17:45 PM 27.9036 -82.6836 332° Northwest 272 313 22,100  Level Jacksonville Center
Thu 01:18:45 PM 27.9703 -82.7258 331° Northwest 277 319 22,100  Level Jacksonville Center
Thu 01:19:45 PM 28.0414 -82.7703 331° Northwest 277 319 22,100  Level Jacksonville Center
Thu 01:20:45 PM 28.1103 -82.8150 330° Northwest 277 319 22,100  Level Jacksonville Center
Thu 01:21:45 PM 28.1792 -82.8572 332° Northwest 277 319 22,100  Level Jacksonville Center
Thu 01:22:45 PM 28.2500 -82.8997 332° Northwest 282 325 22,100  Level Jacksonville Center
Thu 01:23:45 PM 28.3189 -82.9444 330° Northwest 282 325 22,100  Level Jacksonville Center
Thu 01:24:45 PM 28.3900 -82.9894 331° Northwest 287 330 22,100 -50 Level Jacksonville Center
Thu 01:25:45 PM 28.4567 -83.0247 335° Northwest 282 325 22,000 -50 Descending Jacksonville Center
Thu 01:26:45 PM 28.5256 -83.0697 330° Northwest 282 325 22,000 50 Level Jacksonville Center
Thu 01:27:45 PM 28.5964 -83.1125 332° Northwest 287 330 22,100 50 Climbing Jacksonville Center
Thu 01:28:45 PM 28.6650 -83.1575 330° Northwest 287 330 22,100  Level Jacksonville Center
Thu 01:29:45 PM 28.7339 -83.2028 330° Northwest 287 330 22,100  Level Jacksonville Center
Thu 01:30:45 PM 28.8047 -83.2481 331° Northwest 287 330 22,100  Level Jacksonville Center
Thu 01:31:45 PM 28.8756 -83.2933 331° Northwest 287 330 22,100 250 Level Jacksonville Center
Thu 01:32:45 PM 28.9464 -83.3386 331° Northwest 292 336 22,600 700 Climbing Jacksonville Center
Thu 01:33:45 PM 29.0150 -83.3817 331° Northwest 275 316 23,500 750 Climbing Jacksonville Center
Thu 01:34:45 PM 29.0756 -83.4225 329° Northwest 260 299 24,100 300 Climbing Jacksonville Center
Thu 01:35:45 PM 29.1400 -83.4631 331° Northwest 260 299 24,100  Level Jacksonville Center
Thu 01:36:45 PM 29.2086 -83.5064 331° Northwest 267 307 24,100  Level Jacksonville Center
Thu 01:37:45 PM 29.2794 -83.5519 331° Northwest 274 315 24,100  Level Jacksonville Center
Thu 01:38:45 PM 29.3481 -83.5931 332° Northwest 279 321 24,100  Level Jacksonville Center
Thu 01:39:45 PM 29.4167 -83.6364 331° Northwest 279 321 24,100  Level Jacksonville Center
Thu 01:40:45 PM 29.4875 -83.6822 331° Northwest 279 321 24,100  Level Jacksonville Center
Thu 01:41:45 PM 29.5539 -83.7306 328° Northwest 279 321 24,100  Level Jacksonville Center
Thu 01:42:45 PM 29.6225 -83.7814 327° Northwest 284 327 24,100  Level Jacksonville Center
Thu 01:43:45 PM 29.6889 -83.8297 328° Northwest 284 327 24,100  Level Jacksonville Center
Thu 01:44:45 PM 29.7553 -83.8783 328° Northwest 284 327 24,100  Level Jacksonville Center
Thu 01:45:45 PM 29.8261 -83.9269 329° Northwest 289 333 24,100  Level Jacksonville Center
Thu 01:46:45 PM 29.8964 -83.9803 327° Northwest 294 338 24,100  Level Jacksonville Center
Thu 01:47:45 PM 29.9650 -84.0292 328° Northwest 294 338 24,100  Level Jacksonville Center
Thu 01:48:45 PM 30.0314 -84.0850 324° Northwest 294 338 24,100  Level Jacksonville Center
Thu 01:49:45 PM 30.0997 -84.1339 328° Northwest 294 338 24,100  Level Jacksonville Center
Thu 01:50:45 PM 30.1558 -84.1731 329° Northwest 294 338 24,100  Level Jacksonville Center
Thu 01:51:45 PM 30.2283 -84.2244 329° Northwest 294 338 24,100  Level Jacksonville Center
Thu 01:52:45 PM 30.2967 -84.2783 326° Northwest 294 338 24,100  Level Jacksonville Center
Thu 01:53:45 PM 30.3669 -84.3300 328° Northwest 294 338 24,100  Level Jacksonville Center
Thu 01:54:45 PM 30.4375 -84.3814 328° Northwest 299 344 24,100  Level Jacksonville Center
Thu 01:55:45 PM 30.5078 -84.4333 328° Northwest 299 344 24,100  Level Jacksonville Center
Thu 01:56:45 PM 30.5739 -84.4825 327° Northwest 299 344 24,100  Level Jacksonville Center
Thu 01:57:45 PM 30.6464 -84.5369 327° Northwest 299 344 24,100  Level Jacksonville Center
Thu 01:58:45 PM 30.7125 -84.5864 327° Northwest 299 344 24,100  Level Jacksonville Center
Thu 01:59:45 PM 30.7847 -84.6433 326° Northwest 299 344 24,100  Level Jacksonville Center
Thu 02:00:45 PM 30.8508 -84.6931 327° Northwest 299 344 24,100  Level Jacksonville Center
Thu 02:01:45 PM 30.9211 -84.7450 328° Northwest 299 344 24,100  Level Jacksonville Center
Thu 02:02:45 PM 30.9894 -84.7950 328° Northwest 299 344 24,100  Level Jacksonville Center
Thu 02:03:45 PM 31.0656 -84.8547 326° Northwest 299 344 24,100  Level Jacksonville Center
Thu 02:04:45 PM 31.1233 -84.9019 325° Northwest 292 336 24,100  Level Jacksonville Center
Thu 02:05:45 PM 31.1894 -84.9494 328° Northwest 292 336 24,100  Level Jacksonville Center
Thu 02:08:12 PM 31.3458 -85.0672 327° Northwest 280 322 24,100  Level Atlanta Center
Thu 02:09:12 PM 31.4058 -85.1167 325° Northwest 274 315 24,100  Level Atlanta Center
Thu 02:10:12 PM 31.4722 -85.1661 328° Northwest 274 315 24,100  Level Atlanta Center
Thu 02:11:12 PM 31.5364 -85.2133 328° Northwest 274 315 24,100  Level Atlanta Center
Thu 02:12:12 PM 31.6008 -85.2653 326° Northwest 274 315 24,100  Level Atlanta Center
Thu 02:13:12 PM 31.6669 -85.3150 327° Northwest 279 321 24,100  Level Atlanta Center
Thu 02:14:12 PM 31.7311 -85.3622 328° Northwest 285 328 24,100  Level Atlanta Center
Thu 02:15:12 PM 31.7975 -85.4144 326° Northwest 285 328 24,100  Level Atlanta Center
Thu 02:16:12 PM 31.8636 -85.4644 327° Northwest 285 328 24,100  Level Atlanta Center
Thu 02:17:13 PM 31.9278 -85.5119 328° Northwest 280 322 24,100  Level Atlanta Center
Thu 02:18:12 PM 31.9919 -85.5619 327° Northwest 280 322 24,100  Level Atlanta Center
Thu 02:19:12 PM 32.0539 -85.6122 325° Northwest 280 322 24,100  Level Atlanta Center
Thu 02:20:12 PM 32.1158 -85.6622 326° Northwest 280 322 24,100  Level Atlanta Center
Thu 02:21:12 PM 32.1800 -85.7100 328° Northwest 280 322 24,100  Level Atlanta Center
Thu 02:22:12 PM 32.2461 -85.7603 327° Northwest 280 322 24,100  Level Atlanta Center
Thu 02:23:12 PM 32.3078 -85.8131 324° Northwest 275 316 24,100  Level Atlanta Center
Thu 02:24:12 PM 32.3697 -85.8661 324° Northwest 275 316 24,100  Level Atlanta Center
Thu 02:25:12 PM 32.4336 -85.9142 328° Northwest 275 316 24,100  Level Atlanta Center
Thu 02:26:12 PM 32.4933 -85.9647 324° Northwest 275 316 24,100  Level Atlanta Center
Thu 02:27:12 PM 32.5700 -86.0156 331° Northwest 281 323 24,100  Level Atlanta Center
Thu 02:28:12 PM 32.6317 -86.0639 327° Northwest 274 315 24,100  Level Atlanta Center
Thu 02:29:12 PM 32.6956 -86.1172 325° Northwest 274 315 24,100  Level Atlanta Center
Thu 02:30:12 PM 32.7572 -86.1681 325° Northwest 274 315 24,100  Level Atlanta Center
Thu 02:31:12 PM 32.8211 -86.2164 328° Northwest 274 315 24,100  Level Atlanta Center
Thu 02:32:12 PM 32.8850 -86.2650 327° Northwest 274 315 24,100  Level Atlanta Center
Thu 02:33:12 PM 32.9486 -86.3161 326° Northwest 274 315 24,100  Level Atlanta Center
Thu 02:34:12 PM 33.0103 -86.3675 325° Northwest 279 321 24,100  Level Atlanta Center
Thu 02:35:12 PM 33.0742 -86.4186 326° Northwest 279 321 24,100  Level Atlanta Center
Thu 02:36:12 PM 33.1378 -86.4675 327° Northwest 279 321 24,100  Level Atlanta Center
Thu 02:37:12 PM 33.2017 -86.5189 326° Northwest 279 321 24,100  Level Atlanta Center
Thu 02:38:12 PM 33.2611 -86.5703 324° Northwest 279 321 24,100  Level Atlanta Center
Thu 02:39:12 PM 33.3164 -86.6142 326° Northwest 270 311 24,100  Level Atlanta Center
Thu 02:40:12 PM 33.3800 -86.6658 326° Northwest 270 311 24,100  Level Atlanta Center
Thu 02:41:12 PM 33.4439 -86.7150 327° Northwest 270 311 24,100  Level Atlanta Center
Thu 02:42:12 PM 33.5053 -86.7667 325° Northwest 270 311 24,100  Level Atlanta Center
Thu 02:43:12 PM 33.5689 -86.8161 327° Northwest 270 311 24,100  Level Atlanta Center
Thu 02:44:12 PM 33.6325 -86.8656 327° Northwest 270 311 24,100  Level Atlanta Center
Thu 02:45:12 PM 33.6872 -86.9297 316° Northwest 275 316 24,100  Level Atlanta Center
Thu 02:46:12 PM 33.7231 -87.0083 299° West 267 307 24,100  Level Atlanta Center
Thu 02:47:44 PM 33.7847 -87.1431 299° West 269 310 24,100  Level Memphis Center
Thu 02:48:44 PM 33.8197 -87.2144 301° West 270 311 24,100  Level Memphis Center
Thu 02:49:44 PM 33.8614 -87.2953 302° West 265 305 24,100  Level Memphis Center
Thu 02:50:44 PM 33.8947 -87.3742 297° West 265 305 24,100  Level Memphis Center
Thu 02:51:44 PM 33.9319 -87.4506 300° West 265 305 24,100  Level Memphis Center
Thu 02:52:44 PM 33.9733 -87.5269 303° West 266 306 24,100  Level Memphis Center
Thu 02:53:44 PM 34.0086 -87.6033 299° West 266 306 24,100  Level Memphis Center
Thu 02:54:44 PM 34.0436 -87.6825 298° West 266 306 24,100  Level Memphis Center
Thu 02:55:44 PM 34.0783 -87.7492 302° West 261 300 24,100  Level Memphis Center
Thu 02:56:44 PM 34.1114 -87.8283 297° West 261 300 24,100  Level Memphis Center
Thu 02:57:44 PM 34.1422 -87.9103 294° West 261 300 24,100  Level Memphis Center
Thu 02:58:44 PM 34.1792 -87.9844 301° West 256 295 24,100  Level Memphis Center
Thu 02:59:44 PM 34.2119 -88.0639 297° West 256 295 24,100  Level Memphis Center
Thu 03:00:44 PM 34.2469 -88.1436 298° West 261 300 24,100 -350 Level Memphis Center
Thu 03:01:44 PM 34.2839 -88.2406 295° West 276 318 23,400 -950 Descending Memphis Center
Thu 03:02:44 PM 34.3231 -88.3275 299° West 286 329 22,200 -600 Descending Memphis Center
Thu 03:03:44 PM 34.3597 -88.4072 299° West 280 322 22,200 -900 Level Memphis Center
Thu 03:04:44 PM 34.3967 -88.4969 297° West 280 322 20,400 -1,850 Descending Memphis Center
Thu 03:05:44 PM 34.4356 -88.5919 296° West 291 335 18,500 -1,800 Descending Memphis Center
Thu 03:06:44 PM 34.4744 -88.6817 298° West 301 346 16,800 -1,550 Descending Memphis Center
Thu 03:07:44 PM 34.5108 -88.7667 297° West 295 339 15,400 -1,400 Descending Memphis Center
Thu 03:08:44 PM 34.5453 -88.8467 298° West 280 322 14,000 -1,450 Descending Memphis Center
Thu 03:09:44 PM 34.5797 -88.9294 297° West 275 316 12,500 -1,500 Descending Memphis Center
Thu 03:10:44 PM 34.6161 -89.0119 298° West 275 316 11,000 -1,350 Descending Memphis Center
Thu 03:11:44 PM 34.6481 -89.0872 297° West 280 322 9,800 -1,300 Descending Memphis Center
Thu 03:12:44 PM 34.6803 -89.1675 296° West 280 322 8,400 -850 Descending Memphis Center
Thu 03:13:44 PM 34.7122 -89.2481 296° West 275 316 8,100 -450 Descending Memphis Center
Thu 03:14:44 PM 34.7358 -89.3208 292° West 249 287 7,500 -700 Descending Memphis Center
Thu 03:15:44 PM 34.7303 -89.4044 265° West 237 273 6,700 -850 Descending Memphis Center
Thu 03:16:44 PM 34.7225 -89.4878 264° West 248 285 5,800 -850 Descending Memphis Center
Thu 03:17:44 PM 34.7150 -89.5814 264° West 254 292 5,000 -400 Descending Memphis Center
Thu 03:18:44 PM 34.7092 -89.6622 265° West 254 292 5,000  Level Memphis Center
Thu 03:19:44 PM 34.7033 -89.7408 265° West 241 277 5,000  Level Memphis Center
Thu 03:20:44 PM 34.6975 -89.8167 265° West 236 272 5,000 -550 Level Memphis Center
Thu 03:21:44 PM 34.7019 -89.8975 274° West 236 272 3,900 -1,050 Descending Memphis Center
Thu 03:22:44 PM 34.7272 -89.9603 296° West 236 272 2,900 -700 Descending Memphis Center
Thu 03:23:44 PM 34.7794 -89.9728 349° North 196 226 2,500 -450 Descending Memphis Center
Thu 03:24:44 PM 34.8294 -89.9725 360° North 180 207 2,000 -250 Descending Memphis Center
Thu 03:25:44 PM 34.8692 -89.9750 357° North 151 174 2,000  Level Memphis Center
Thu 03:25:59 PM 34.8833 -89.9667 26° Northeast 131 151 2,000  Level KMEM
Thu 03:26:56 PM 34.9167 -89.9667 360° North 141 162 2,000 -162 Level KMEM
Thu 03:27:50 PM 34.9500 -89.9667 360° North 145 167 1,700 -536 Descending KMEM
Thu 03:28:48 PM 35.0000 -89.9667 360° North 144 166 1,000 -724 Descending KMEM
Thu 03:30:00 PM 35.0333 -89.9667 322° Northwest  Level FlightAware Approximate
Thu 03:37:00 PM 35.0424 -89.9767 322° Northwest  Level Estimated
Thu 03:38:00 PM 35.0424 -89.9767 322° Northwest  Level Estimated
Thu 03:39:00 PM 35.0424 -89.9767 322° Northwest  Level Estimated
Thu 03:40:00 PM 35.0424 -89.9767 322° Northwest  Level Estimated
Thu 03:41:00 PM 35.0424 -89.9767 322° Northwest  Level Estimated
Thu 03:42:00 PM 35.0424 -89.9767 322° Northwest  Level Estimated

Login

Don't have an account? Register now (free) for customized features, flight alerts, and more!